East Dulwich, United Kingdom
Current Conditions -  °F | °C
As of 7:20 PM on Thursday 23 Oct 2014 (Local Time) from EGLC Reporting Station
Scattered Clouds Scattered Clouds  
Wind Chill: 61°   Ceiling: Unl
Heat Index: 61°   Visibility: 6mi
Dew Point: 54°   Wind: 10mph
Humidity: 77%   Direction: 220°SW
Pressure: 30.03"   Gusts: NA
Location:  51.45°N, 0.07°W
Report Text: EGLC 231820Z 22009KT 9999 FEW022 SCT028 16/12 Q1017
Loading
Personal Weather Stations






























Interactive Weather Map New forecast layout! Learn more

10-Day Weather Forecast

Advertisements
Track Severe Weather on mobile